createdAt,value
2022-11-08T00:02:14.107Z,100451.63
2022-11-08T00:05:58.455Z,100454.16
2022-11-08T00:09:43.923Z,100453.98
2022-11-08T00:13:28.251Z,100452.27
2022-11-08T00:16:55.114Z,100456.12
2022-11-08T00:20:22.484Z,100455.67
2022-11-08T00:23:49.792Z,100459.48
2022-11-08T00:27:18.922Z,100465.81
2022-11-08T00:30:45.518Z,100462.19
2022-11-08T00:34:14.986Z,100465.75
2022-11-08T00:37:42.030Z,100465.38
2022-11-08T00:41:08.995Z,100465.19
2022-11-08T00:44:36.015Z,100462.20
2022-11-08T00:48:02.998Z,100461.07
2022-11-08T00:51:29.860Z,100466.20
2022-11-08T00:54:57.024Z,100467.91
2022-11-08T00:58:27.841Z,100466.67
2022-11-08T01:01:55.306Z,100464.20
2022-11-08T01:05:22.081Z,100466.02
2022-11-08T01:08:50.159Z,100467.80
2022-11-08T01:12:17.419Z,100464.83
2022-11-08T01:15:46.632Z,100468.08
2022-11-08T01:19:16.006Z,100465.20
2022-11-08T01:22:43.164Z,100465.06
2022-11-08T01:26:13.045Z,100465.02
2022-11-08T01:29:39.736Z,100464.02
2022-11-08T01:33:06.889Z,100468.04
2022-11-08T01:36:34.165Z,100466.53
2022-11-08T01:40:01.577Z,100469.76
2022-11-08T01:43:41.606Z,100472.21
2022-11-08T01:47:08.227Z,100464.84
2022-11-08T01:50:35.478Z,100454.45
2022-11-08T01:54:05.959Z,100450.54
2022-11-08T01:57:37.367Z,100451.95
2022-11-08T02:01:05.747Z,100453.30
2022-11-08T02:04:33.468Z,100457.45
2022-11-08T02:08:04.419Z,100456.80
2022-11-08T02:11:32.174Z,100455.16
2022-11-08T02:14:58.936Z,100453.73
2022-11-08T02:18:30.252Z,100447.77
2022-11-08T02:22:01.964Z,100448.73
2022-11-08T02:25:30.101Z,100451.55
2022-11-08T02:28:56.980Z,100448.64
2022-11-08T02:32:24.739Z,100452.70
2022-11-08T02:35:55.654Z,100452.45
2022-11-08T02:39:23.171Z,100456.59
2022-11-08T02:42:50.270Z,100448.08
2022-11-08T02:46:17.229Z,100442.88
2022-11-08T02:49:44.492Z,100446.04
2022-11-08T02:53:12.315Z,100444.27
2022-11-08T02:56:39.138Z,100445.66
2022-11-08T03:00:06.197Z,100446.12
2022-11-08T03:03:34.348Z,100441.46
2022-11-08T03:07:00.930Z,100441.68
2022-11-08T03:10:29.975Z,100446.52
2022-11-08T03:13:57.256Z,100448.42
2022-11-08T03:17:25.079Z,100457.34
2022-11-08T03:20:51.861Z,100457.63
2022-11-08T03:24:18.677Z,100455.95
2022-11-08T03:27:46.408Z,100455.88
2022-11-08T03:31:14.016Z,100454.38
2022-11-08T03:34:41.381Z,100451.36
2022-11-08T03:38:08.943Z,100451.80
2022-11-08T03:41:35.954Z,100449.08
2022-11-08T03:45:02.741Z,100450.36
2022-11-08T03:48:30.239Z,100452.26
2022-11-08T03:51:58.123Z,100451.00
2022-11-08T03:55:27.184Z,100453.14
2022-11-08T03:58:57.174Z,100452.79
2022-11-08T04:02:24.777Z,100455.25
2022-11-08T04:05:53.202Z,100451.91
2022-11-08T04:09:21.649Z,100450.92
2022-11-08T04:13:12.074Z,100451.11
2022-11-08T04:16:38.950Z,100448.13
2022-11-08T04:20:24.328Z,100445.56
2022-11-08T04:23:52.680Z,100446.46
2022-11-08T04:27:19.672Z,100446.27
2022-11-08T04:30:52.761Z,100445.71
2022-11-08T04:34:19.299Z,100443.81
2022-11-08T04:37:46.156Z,100449.50
2022-11-08T04:41:15.458Z,100453.68
2022-11-08T04:44:42.160Z,100454.61
2022-11-08T04:48:09.529Z,100454.89
2022-11-08T04:51:36.775Z,100448.45
2022-11-08T04:55:03.538Z,100447.25
2022-11-08T04:58:30.686Z,100445.75
2022-11-08T05:01:57.956Z,100451.98
2022-11-08T05:05:25.605Z,100449.87
2022-11-08T05:08:53.092Z,100449.00
2022-11-08T05:12:19.777Z,100447.53
2022-11-08T05:15:46.440Z,100454.40
2022-11-08T05:19:13.524Z,100455.92
2022-11-08T05:22:58.497Z,100459.69
2022-11-08T05:26:25.809Z,100460.03
2022-11-08T05:29:52.842Z,100463.33
2022-11-08T05:33:19.654Z,100466.16
2022-11-08T05:36:46.807Z,100470.30
2022-11-08T05:40:15.064Z,100472.95
2022-11-08T05:43:42.136Z,100472.09
2022-11-08T05:47:09.257Z,100475.17
2022-11-08T05:50:37.660Z,100473.39
2022-11-08T05:54:13.349Z,100475.96
2022-11-08T05:57:45.646Z,100471.17
2022-11-08T06:01:14.590Z,100471.31
2022-11-08T06:04:41.413Z,100475.54
2022-11-08T06:08:08.371Z,100479.62
2022-11-08T06:11:35.372Z,100479.88
2022-11-08T06:15:04.528Z,100479.22
2022-11-08T06:18:31.215Z,100478.80
2022-11-08T06:21:58.399Z,100474.85
2022-11-08T06:25:25.184Z,100473.01
2022-11-08T06:28:51.968Z,100475.80
2022-11-08T06:32:18.638Z,100478.99
2022-11-08T06:35:45.321Z,100481.33
2022-11-08T06:39:12.755Z,100482.13
2022-11-08T06:42:39.361Z,100485.73
2022-11-08T06:46:06.493Z,100487.83
2022-11-08T06:49:33.441Z,100490.14
2022-11-08T06:53:01.347Z,100492.24
2022-11-08T06:56:28.748Z,100496.65
2022-11-08T06:59:56.040Z,100501.52
2022-11-08T07:03:22.976Z,100502.23
2022-11-08T07:06:50.205Z,100499.80
2022-11-08T07:10:22.009Z,100502.86
2022-11-08T07:13:49.378Z,100505.06
2022-11-08T07:17:18.621Z,100506.33
2022-11-08T07:20:45.627Z,100499.60
2022-11-08T07:24:12.313Z,100492.02
2022-11-08T07:27:39.017Z,100493.99
2022-11-08T07:31:08.253Z,100496.45
2022-11-08T07:34:36.721Z,100500.38
2022-11-08T07:38:05.630Z,100502.77
2022-11-08T07:41:32.661Z,100499.89
2022-11-08T07:45:00.160Z,100505.40
2022-11-08T07:48:28.211Z,100504.31
2022-11-08T07:51:56.029Z,100501.61
2022-11-08T07:55:22.959Z,100503.40
2022-11-08T07:58:50.525Z,100505.34
2022-11-08T08:02:17.475Z,100499.83
2022-11-08T08:05:46.754Z,100499.24
2022-11-08T08:09:14.012Z,100502.14
2022-11-08T08:12:40.815Z,100502.27
2022-11-08T08:16:08.399Z,100497.00
2022-11-08T08:19:36.103Z,100498.98
2022-11-08T08:23:03.281Z,100497.67
2022-11-08T08:26:30.848Z,100503.27
2022-11-08T08:29:57.689Z,100509.65
2022-11-08T08:33:29.086Z,100507.02
2022-11-08T08:36:58.166Z,100514.86
2022-11-08T08:40:25.036Z,100516.34
2022-11-08T08:43:51.379Z,100513.71
2022-11-08T08:47:19.667Z,100510.32
2022-11-08T08:50:46.169Z,100517.66
2022-11-08T08:54:15.029Z,100512.58
2022-11-08T08:57:44.894Z,100509.05
2022-11-08T09:05:00.400Z,100510.52
2022-11-08T09:08:42.986Z,100506.14
2022-11-08T09:12:13.549Z,100514.03
2022-11-08T09:15:41.505Z,100517.95
2022-11-08T09:19:08.188Z,100525.33
2022-11-08T09:22:37.225Z,100523.33
2022-11-08T09:26:04.950Z,100519.02
2022-11-08T09:29:31.262Z,100517.34
2022-11-08T09:33:01.296Z,100513.02
2022-11-08T09:36:28.733Z,100514.88
2022-11-08T09:39:57.073Z,100513.20
2022-11-08T09:43:48.753Z,100514.80
2022-11-08T09:47:21.148Z,100511.35
2022-11-08T09:50:49.392Z,100506.66
2022-11-08T09:54:22.724Z,100504.48
2022-11-08T09:58:00.656Z,100500.09
2022-11-08T10:01:27.756Z,100495.24
2022-11-08T10:04:58.574Z,100493.80
2022-11-08T10:08:32.037Z,100484.51
2022-11-08T10:12:11.176Z,100477.91
2022-11-08T10:15:48.376Z,100480.52
2022-11-08T10:19:54.753Z,100478.39
2022-11-08T10:23:34.033Z,100483.70
2022-11-08T10:27:14.361Z,100485.11
2022-11-08T10:30:46.795Z,100482.21
2022-11-08T10:34:20.027Z,100482.77
2022-11-08T10:37:53.637Z,100481.86
2022-11-08T10:41:29.841Z,100485.46
2022-11-08T10:45:05.277Z,100478.29
2022-11-08T10:48:40.660Z,100475.45
2022-11-08T10:52:24.571Z,100468.81
2022-11-08T10:55:53.713Z,100459.15
2022-11-08T10:59:32.503Z,100457.88
2022-11-08T11:03:01.603Z,100457.05
2022-11-08T11:06:31.411Z,100461.05
2022-11-08T11:09:58.474Z,100458.52
2022-11-08T11:17:02.738Z,100458.39
2022-11-08T11:20:30.029Z,100454.08
2022-11-08T11:24:00.325Z,100455.21
2022-11-08T11:27:31.399Z,100456.05
2022-11-08T11:31:03.015Z,100448.58
2022-11-08T11:34:54.046Z,100448.52
2022-11-08T11:38:31.770Z,100445.22
2022-11-08T11:42:18.086Z,100441.92
2022-11-08T11:45:53.057Z,100441.83
2022-11-08T11:49:23.325Z,100441.24
2022-11-08T11:52:50.579Z,100436.08
2022-11-08T11:56:42.109Z,100432.39
2022-11-08T12:00:14.657Z,100438.56
2022-11-08T12:03:57.921Z,100441.44
2022-11-08T12:07:28.152Z,100437.41
2022-11-08T12:11:13.201Z,100432.89
2022-11-08T12:14:56.406Z,100431.50
2022-11-08T12:18:44.006Z,100435.39
2022-11-08T12:22:34.814Z,100430.87
2022-11-08T12:26:12.728Z,100434.39
2022-11-08T12:29:50.093Z,100422.31
2022-11-08T12:33:36.020Z,100410.92
2022-11-08T12:37:14.911Z,100411.34
2022-11-08T12:40:56.881Z,100412.91
2022-11-08T12:44:56.682Z,100410.81
2022-11-08T12:48:35.387Z,100414.85
2022-11-08T12:52:20.761Z,100416.56
2022-11-08T12:55:52.528Z,100417.15
2022-11-08T12:59:24.341Z,100413.20
2022-11-08T13:03:03.596Z,100413.94
2022-11-08T13:06:36.353Z,100410.66
2022-11-08T13:10:12.260Z,100414.20
2022-11-08T13:13:50.210Z,100411.84
2022-11-08T13:17:25.080Z,100416.95
2022-11-08T13:20:52.828Z,100414.49
2022-11-08T13:24:45.581Z,100410.36
2022-11-08T13:28:46.672Z,100417.52
2022-11-08T13:32:22.002Z,100415.11
2022-11-08T13:35:59.916Z,100411.90
2022-11-08T13:39:48.854Z,100403.18
2022-11-08T13:43:29.698Z,100406.27
2022-11-08T13:46:56.911Z,100404.08
2022-11-08T13:50:53.011Z,100401.09
2022-11-08T13:54:49.045Z,100399.60
2022-11-08T13:58:34.927Z,100403.61
2022-11-08T14:02:04.648Z,100410.38
2022-11-08T14:05:33.470Z,100406.36
2022-11-08T14:09:09.290Z,100409.31
2022-11-08T14:12:44.139Z,100403.91
2022-11-08T14:16:19.692Z,100403.98
2022-11-08T14:19:48.777Z,100402.20
2022-11-08T14:23:24.287Z,100403.34
2022-11-08T14:26:51.446Z,100405.38
2022-11-08T14:30:24.577Z,100405.77
2022-11-08T14:33:50.425Z,100408.71
2022-11-08T14:37:25.858Z,100402.44
2022-11-08T14:41:00.171Z,100400.59
2022-11-08T14:44:28.666Z,100396.80
2022-11-08T14:48:01.423Z,100394.42
2022-11-08T14:51:27.561Z,100389.61
2022-11-08T14:55:04.468Z,100392.98
2022-11-08T14:58:32.404Z,100391.23
2022-11-08T15:02:00.636Z,100392.73
2022-11-08T15:05:37.739Z,100397.33
2022-11-08T15:09:07.371Z,100395.14
2022-11-08T15:12:37.781Z,100394.98
2022-11-08T15:16:09.694Z,100389.77
2022-11-08T15:19:42.741Z,100389.52
2022-11-08T15:23:27.313Z,100387.72
2022-11-08T15:27:08.939Z,100389.12
2022-11-08T15:30:44.097Z,100389.39
2022-11-08T15:34:23.601Z,100389.33
2022-11-08T15:38:01.098Z,100391.23
2022-11-08T15:41:34.927Z,100393.50
2022-11-08T15:45:05.089Z,100396.50
2022-11-08T15:48:33.607Z,100398.38
2022-11-08T15:52:00.914Z,100397.27
2022-11-08T15:55:31.737Z,100392.98
2022-11-08T15:58:58.199Z,100395.42
2022-11-08T16:02:28.307Z,100393.15
2022-11-08T16:05:59.576Z,100391.52
2022-11-08T16:09:26.450Z,100390.42
2022-11-08T16:12:54.586Z,100388.38
2022-11-08T16:16:24.715Z,100387.45
2022-11-08T16:19:51.703Z,100387.23
2022-11-08T16:23:20.657Z,100388.83
2022-11-08T16:26:50.355Z,100390.76
2022-11-08T16:30:22.766Z,100395.45
2022-11-08T16:33:51.726Z,100397.61
2022-11-08T16:37:19.611Z,100398.42
2022-11-08T16:40:47.240Z,100398.42
2022-11-08T16:44:18.662Z,100398.73
2022-11-08T16:47:54.490Z,100395.61
2022-11-08T16:51:23.067Z,100392.20
2022-11-08T16:54:52.777Z,100390.63
2022-11-08T16:58:21.343Z,100390.80
2022-11-08T17:01:49.771Z,100387.27
2022-11-08T17:05:21.501Z,100388.98
2022-11-08T17:08:48.683Z,100387.54
2022-11-08T17:12:30.220Z,100388.19
2022-11-08T17:15:58.422Z,100394.39
2022-11-08T17:19:25.265Z,100396.91
2022-11-08T17:22:53.028Z,100402.27
2022-11-08T17:26:21.175Z,100400.43
2022-11-08T17:29:48.096Z,100399.88
2022-11-08T17:33:16.203Z,100397.36
2022-11-08T17:36:43.866Z,100398.73
2022-11-08T17:40:15.431Z,100394.52
2022-11-08T17:43:42.529Z,100389.23
2022-11-08T17:47:12.212Z,100386.41
2022-11-08T17:50:39.972Z,100391.16
2022-11-08T17:54:08.016Z,100391.48
2022-11-08T17:57:36.221Z,100392.58
2022-11-08T18:01:05.395Z,100390.70
2022-11-08T18:04:32.573Z,100391.34
2022-11-08T18:07:59.417Z,100387.32
2022-11-08T18:11:29.903Z,100382.75
2022-11-08T18:14:57.984Z,100379.84
2022-11-08T18:18:24.757Z,100377.60
2022-11-08T18:21:52.011Z,100376.83
2022-11-08T18:25:19.610Z,100377.50
2022-11-08T18:28:49.009Z,100373.77
2022-11-08T18:32:17.322Z,100372.42
2022-11-08T18:35:44.981Z,100368.97
2022-11-08T18:42:52.695Z,100366.02
2022-11-08T18:46:22.918Z,100361.04
2022-11-08T18:49:49.894Z,100361.88
2022-11-08T18:53:17.988Z,100360.54
2022-11-08T18:56:44.813Z,100361.85
2022-11-08T19:00:15.018Z,100360.77
2022-11-08T19:03:41.949Z,100354.84
2022-11-08T19:07:09.803Z,100354.08
2022-11-08T19:10:38.779Z,100345.80
2022-11-08T19:14:05.840Z,100348.48
2022-11-08T19:17:35.485Z,100343.13
2022-11-08T19:21:05.387Z,100342.30
2022-11-08T19:24:32.053Z,100352.12
2022-11-08T19:27:59.537Z,100355.27
2022-11-08T19:31:27.481Z,100358.55
2022-11-08T19:34:54.792Z,100361.02
2022-11-08T19:38:22.814Z,100364.30
2022-11-08T19:41:49.851Z,100361.09
2022-11-08T19:45:19.558Z,100361.05
2022-11-08T19:48:51.325Z,100368.20
2022-11-08T19:52:23.616Z,100369.52
2022-11-08T19:56:03.147Z,100372.52
2022-11-08T19:59:33.171Z,100373.98
2022-11-08T20:03:02.776Z,100370.65
2022-11-08T20:06:34.301Z,100371.53
2022-11-08T20:10:09.328Z,100370.79
2022-11-08T20:13:36.886Z,100375.77
2022-11-08T20:17:04.158Z,100372.88
2022-11-08T20:20:32.600Z,100374.59
2022-11-08T20:24:02.317Z,100376.24
2022-11-08T20:27:36.780Z,100371.14
2022-11-08T20:31:11.997Z,100375.16
2022-11-08T20:34:41.679Z,100376.04
2022-11-08T20:38:09.224Z,100375.59
2022-11-08T20:41:39.433Z,100368.39
2022-11-08T20:45:14.730Z,100367.69
2022-11-08T20:48:50.668Z,100361.91
2022-11-08T20:52:25.150Z,100358.67
2022-11-08T20:56:00.802Z,100354.65
2022-11-08T20:59:28.243Z,100356.24
2022-11-08T21:02:55.956Z,100351.61
2022-11-08T21:06:35.557Z,100347.33
2022-11-08T21:10:35.930Z,100337.32
2022-11-08T21:13:57.400Z,100342.58
2022-11-08T21:17:25.996Z,100341.06
2022-11-08T21:21:02.990Z,100341.54
2022-11-08T21:24:37.345Z,100343.13
2022-11-08T21:28:09.486Z,100346.79
2022-11-08T21:31:37.410Z,100345.75
2022-11-08T21:35:05.098Z,100344.37
2022-11-08T21:38:35.154Z,100338.12
2022-11-08T21:42:05.817Z,100339.77
2022-11-08T21:45:36.511Z,100339.98
2022-11-08T21:49:10.793Z,100339.10
2022-11-08T21:52:38.192Z,100339.51
2022-11-08T21:56:09.307Z,100331.59
2022-11-08T21:59:36.416Z,100327.48
2022-11-08T22:03:03.205Z,100325.26
2022-11-08T22:06:31.976Z,100321.67
2022-11-08T22:09:59.399Z,100316.28
2022-11-08T22:13:25.948Z,100318.10
2022-11-08T22:16:53.941Z,100320.14
2022-11-08T22:20:20.789Z,100318.49
2022-11-08T22:23:48.325Z,100314.29
2022-11-08T22:27:15.307Z,100314.08
2022-11-08T22:30:43.107Z,100318.83
2022-11-08T22:34:12.276Z,100315.33
2022-11-08T22:37:39.638Z,100311.88
2022-11-08T22:41:09.768Z,100311.56
2022-11-08T22:44:36.791Z,100310.44
2022-11-08T22:48:03.740Z,100309.90
2022-11-08T22:51:34.341Z,100309.84
2022-11-08T22:55:01.142Z,100308.18
2022-11-08T22:58:28.927Z,100304.72
2022-11-08T23:01:57.448Z,100301.91
2022-11-08T23:05:25.484Z,100294.98
2022-11-08T23:08:53.211Z,100293.41
2022-11-08T23:12:40.331Z,100295.14
2022-11-08T23:16:28.824Z,100282.32
2022-11-08T23:20:15.792Z,100285.98
2022-11-08T23:24:05.747Z,100285.98
2022-11-08T23:27:51.557Z,100292.15
2022-11-08T23:31:38.473Z,100290.20
2022-11-08T23:35:12.391Z,100282.86
2022-11-08T23:38:41.766Z,100282.45
2022-11-08T23:42:26.922Z,100283.86
2022-11-08T23:45:55.965Z,100287.97
2022-11-08T23:49:23.969Z,100278.73
2022-11-08T23:52:53.080Z,100284.70
2022-11-08T23:56:25.022Z,100289.69
2022-11-08T23:59:52.430Z,100291.35
